Time;durP1;ratioP1;P1;durP2;ratioP2;P2;SDS_P1;SDS_P2;PMS_P1;PMS_P2;Temp;Humidity;BMP_temperature;BMP_pressure;BME280_temperature;BME280_humidity;BME280_pressure;Samples;Min_cycle;Max_cycle;Signal;HPM_P1;HPM_P2
2021/03/17 00:01:04;;;;;;;4.85;2.30;;;5.60;99.90;;;;;;5098736;28;20088;-81
2021/03/17 00:03:31;;;;;;;5.78;2.40;;;5.60;99.90;;;;;;5095810;28;20152;-81
2021/03/17 00:05:58;;;;;;;4.43;2.30;;;5.60;99.90;;;;;;5095862;28;20874;-82
2021/03/17 00:08:25;;;;;;;5.07;2.28;;;5.60;99.80;;;;;;5095641;28;20466;-82
2021/03/17 00:10:54;;;;;;;6.00;2.53;;;5.60;99.90;;;;;;5095297;28;20467;-80
2021/03/17 00:13:22;;;;;;;5.05;2.47;;;5.60;99.90;;;;;;5094862;28;20572;-81
2021/03/17 00:15:50;;;;;;;4.65;2.35;;;5.60;99.90;;;;;;5095584;28;20133;-80
2021/03/17 00:18:17;;;;;;;6.10;2.42;;;5.60;99.90;;;;;;5094115;28;20135;-79
2021/03/17 00:20:44;;;;;;;4.80;1.98;;;5.60;99.90;;;;;;5095548;28;20087;-83
2021/03/17 00:23:11;;;;;;;5.90;2.65;;;5.60;99.90;;;;;;5094949;28;20131;-80
2021/03/17 00:25:40;;;;;;;5.20;2.17;;;5.60;99.90;;;;;;5095075;28;20092;-79
2021/03/17 00:28:07;;;;;;;4.60;2.30;;;5.60;99.90;;;;;;5094520;28;20080;-79
2021/03/17 00:30:37;;;;;;;3.88;2.30;;;5.60;99.90;;;;;;5095198;28;20508;-79
2021/03/17 00:33:09;;;;;;;4.60;2.15;;;5.60;99.90;;;;;;5094946;28;20147;-83
2021/03/17 00:35:36;;;;;;;5.22;2.25;;;5.60;99.90;;;;;;5095382;28;20131;-79
2021/03/17 00:38:03;;;;;;;4.03;2.20;;;5.60;99.90;;;;;;5094407;28;20139;-79
2021/03/17 00:40:31;;;;;;;4.68;2.17;;;5.60;99.90;;;;;;5093357;28;20129;-80
2021/03/17 00:42:58;;;;;;;3.80;1.92;;;5.70;99.90;;;;;;5095081;28;20131;-80
2021/03/17 00:45:24;;;;;;;4.63;2.10;;;5.60;99.90;;;;;;5094681;28;20052;-79
2021/03/17 00:47:52;;;;;;;4.78;2.33;;;5.60;99.90;;;;;;5094863;28;20126;-80
2021/03/17 00:50:20;;;;;;;5.38;2.08;;;5.50;99.90;;;;;;5094904;28;20087;-79
2021/03/17 00:52:47;;;;;;;4.72;2.22;;;5.70;99.90;;;;;;5094850;28;20135;-80
2021/03/17 00:55:15;;;;;;;4.82;2.40;;;5.70;99.90;;;;;;5094228;28;20135;-80
2021/03/17 00:57:42;;;;;;;5.25;2.40;;;5.60;99.90;;;;;;5094311;28;20138;-80
2021/03/17 01:00:12;;;;;;;4.75;2.10;;;5.70;99.90;;;;;;5094563;28;20450;-80
2021/03/17 01:02:39;;;;;;;5.13;2.40;;;5.70;99.90;;;;;;5094472;28;20562;-79
2021/03/17 01:05:09;;;;;;;6.28;2.63;;;5.60;99.90;;;;;;5093458;28;20127;-80
2021/03/17 01:07:36;;;;;;;3.67;2.10;;;5.70;99.90;;;;;;5094845;28;20078;-80
2021/03/17 01:10:09;;;;;;;4.38;2.22;;;5.60;99.90;;;;;;5094320;28;20127;-81
2021/03/17 01:12:36;;;;;;;4.88;2.30;;;5.60;99.90;;;;;;5094979;28;20481;-80
2021/03/17 01:15:04;;;;;;;5.32;2.35;;;5.70;99.90;;;;;;5094402;28;20083;-81
2021/03/17 01:17:31;;;;;;;4.40;2.30;;;5.60;99.90;;;;;;5094697;28;20478;-80
2021/03/17 01:19:58;;;;;;;4.07;2.28;;;5.60;99.90;;;;;;5094516;28;20079;-79
2021/03/17 01:22:25;;;;;;;4.60;2.40;;;5.70;99.90;;;;;;5094341;28;20140;-80
2021/03/17 01:24:52;;;;;;;4.07;2.28;;;5.70;99.90;;;;;;5083471;28;20143;-80
2021/03/17 01:27:18;;;;;;;3.75;2.10;;;5.70;99.90;;;;;;5074240;28;20463;-79
2021/03/17 01:29:45;;;;;;;4.82;2.42;;;5.70;99.90;;;;;;5073958;28;20055;-80
2021/03/17 01:32:11;;;;;;;5.45;2.25;;;5.70;99.90;;;;;;5073917;28;20410;-80
2021/03/17 01:34:38;;;;;;;4.60;2.38;;;5.70;99.90;;;;;;5073580;28;20148;-80
2021/03/17 01:37:05;;;;;;;5.10;2.40;;;5.70;99.90;;;;;;5073522;28;20084;-81
2021/03/17 01:39:32;;;;;;;5.55;2.75;;;5.70;99.90;;;;;;5073635;28;20509;-80
2021/03/17 01:41:59;;;;;;;6.45;2.55;;;5.70;99.70;;;;;;5073613;28;20135;-80
2021/03/17 01:44:26;;;;;;;5.10;2.40;;;5.60;99.80;;;;;;5073772;28;20116;-81
2021/03/17 01:46:53;;;;;;;5.25;2.90;;;5.60;99.90;;;;;;5073896;28;20135;-81
2021/03/17 01:49:19;;;;;;;4.63;2.10;;;5.60;99.90;;;;;;5072972;28;20052;-81
2021/03/17 01:51:46;;;;;;;4.32;2.20;;;5.50;99.90;;;;;;5073443;28;20080;-82
2021/03/17 01:54:13;;;;;;;4.93;2.08;;;5.50;99.90;;;;;;5073472;28;20146;-81
2021/03/17 01:56:40;;;;;;;5.03;2.25;;;5.40;99.90;;;;;;5073232;28;20136;-82
2021/03/17 01:59:07;;;;;;;4.22;2.17;;;5.40;99.90;;;;;;5073923;28;20045;-80
2021/03/17 02:01:34;;;;;;;3.63;1.90;;;5.30;99.90;;;;;;5073693;28;20059;-81
2021/03/17 02:04:02;;;;;;;4.38;2.30;;;5.30;99.90;;;;;;5073338;28;20056;-81
2021/03/17 02:06:28;;;;;;;4.55;2.00;;;5.40;99.90;;;;;;5073704;28;20044;-81
2021/03/17 02:08:55;;;;;;;3.75;2.38;;;5.30;99.90;;;;;;5073307;28;20087;-82
2021/03/17 02:11:22;;;;;;;3.90;2.00;;;5.30;99.90;;;;;;5073663;28;20123;-82
2021/03/17 02:14:17;;;;;;;3.65;1.90;;;5.20;99.90;;;;;;5073298;28;20131;-81
2021/03/17 02:16:48;;;;;;;4.03;1.98;;;5.30;99.90;;;;;;5073216;28;20083;-81
2021/03/17 02:20:04;;;;;;;4.18;2.20;;;5.30;99.90;;;;;;5073055;28;20060;-81
2021/03/17 02:22:45;;;;;;;4.10;2.20;;;5.30;99.90;;;;;;5073437;28;20139;-80
2021/03/17 02:25:34;;;;;;;5.22;2.30;;;5.30;99.90;;;;;;5072792;28;20079;-81
2021/03/17 02:28:25;;;;;;;4.20;2.08;;;5.30;99.90;;;;;;5073314;28;20080;-81
2021/03/17 02:31:13;;;;;;;4.70;2.60;;;5.30;99.90;;;;;;5073318;28;20052;-80
2021/03/17 02:33:53;;;;;;;4.35;2.17;;;5.30;99.90;;;;;;5071674;28;20446;-81
2021/03/17 02:36:31;;;;;;;4.75;2.50;;;5.30;99.90;;;;;;5072881;28;20139;-81
2021/03/17 02:39:06;;;;;;;4.68;2.60;;;5.30;99.90;;;;;;5072855;28;20125;-79
2021/03/17 02:41:42;;;;;;;5.10;2.55;;;5.30;99.90;;;;;;5052979;28;20048;-79
2021/03/17 02:44:15;;;;;;;4.50;2.50;;;5.20;99.90;;;;;;5057830;28;20578;-79
2021/03/17 02:46:43;;;;;;;4.80;2.60;;;5.20;99.90;;;;;;5052906;28;20049;-80
2021/03/17 02:49:18;;;;;;;4.15;2.38;;;5.30;99.90;;;;;;5073142;28;20080;-82
2021/03/17 02:51:50;;;;;;;4.70;2.58;;;5.20;99.90;;;;;;5073294;28;20064;-80
2021/03/17 02:54:20;;;;;;;4.95;2.53;;;5.20;99.90;;;;;;5072622;28;20045;-81
2021/03/17 02:56:53;;;;;;;7.10;2.75;;;5.20;99.90;;;;;;5072753;28;20106;-81
2021/03/17 02:59:22;;;;;;;4.40;2.40;;;5.20;99.90;;;;;;5072832;28;20136;-81
2021/03/17 03:01:52;;;;;;;6.50;2.92;;;5.20;99.90;;;;;;5073133;28;20095;-83
2021/03/17 03:04:21;;;;;;;5.63;2.58;;;5.30;99.90;;;;;;5072643;28;20053;-81
2021/03/17 03:06:50;;;;;;;5.35;3.00;;;5.30;99.90;;;;;;5072914;28;20131;-81
2021/03/17 03:09:20;;;;;;;4.43;2.22;;;5.20;99.90;;;;;;5072769;28;20076;-80
2021/03/17 03:11:47;;;;;;;4.70;2.20;;;5.20;99.90;;;;;;5072892;28;20076;-80
2021/03/17 03:14:14;;;;;;;4.55;2.45;;;5.10;99.90;;;;;;5072387;28;20075;-80
2021/03/17 03:16:42;;;;;;;5.75;2.72;;;5.20;99.90;;;;;;5072894;28;20049;-81
2021/03/17 03:19:09;;;;;;;4.85;2.50;;;5.20;99.90;;;;;;5072935;28;20499;-80
2021/03/17 03:21:38;;;;;;;4.20;2.50;;;5.20;99.90;;;;;;5072612;28;20056;-79
2021/03/17 03:24:05;;;;;;;4.47;2.65;;;5.30;99.90;;;;;;5072324;28;20053;-80
2021/03/17 03:26:33;;;;;;;4.70;2.50;;;5.20;99.90;;;;;;5052744;28;20128;-80
2021/03/17 03:29:03;;;;;;;4.80;2.53;;;5.20;99.90;;;;;;5054576;28;20132;-80
2021/03/17 03:31:30;;;;;;;4.93;2.35;;;5.20;99.90;;;;;;5076268;28;20095;-80
2021/03/17 03:33:57;;;;;;;4.47;2.20;;;5.30;99.90;;;;;;5076209;28;20147;-79
2021/03/17 03:36:26;;;;;;;4.10;2.40;;;5.30;99.90;;;;;;5076068;28;20076;-81
2021/03/17 03:38:53;;;;;;;4.82;2.50;;;5.30;99.90;;;;;;5076120;28;20083;-80
2021/03/17 03:41:20;;;;;;;4.68;2.33;;;5.30;99.90;;;;;;5075643;28;20139;-79
2021/03/17 03:43:47;;;;;;;4.38;2.28;;;5.40;99.90;;;;;;5075925;28;20087;-79
2021/03/17 03:46:14;;;;;;;5.03;2.53;;;5.40;99.90;;;;;;5075999;28;20077;-81
2021/03/17 03:48:40;;;;;;;3.78;2.17;;;5.50;99.90;;;;;;5076251;28;20143;-85
2021/03/17 03:51:07;;;;;;;4.50;2.65;;;5.40;99.90;;;;;;5076284;28;20084;-82
2021/03/17 03:53:42;;;;;;;4.57;2.20;;;5.40;99.90;;;;;;5076406;28;20140;-81
2021/03/17 03:56:15;;;;;;;4.15;2.30;;;5.50;99.90;;;;;;5075169;28;20123;-82
2021/03/17 03:58:47;;;;;;;4.82;2.70;;;5.40;99.90;;;;;;5075690;28;20079;-82
2021/03/17 04:01:19;;;;;;;4.57;2.42;;;5.50;99.90;;;;;;5075960;28;20140;-82
2021/03/17 04:03:56;;;;;;;4.28;2.38;;;5.40;99.90;;;;;;5074021;28;20044;-80
2021/03/17 04:06:24;;;;;;;4.72;2.40;;;5.40;99.90;;;;;;5074540;28;20167;-81
2021/03/17 04:08:55;;;;;;;5.43;2.88;;;5.40;99.90;;;;;;5072924;28;20052;-80
2021/03/17 04:11:23;;;;;;;4.25;2.45;;;5.50;99.90;;;;;;5073458;28;20053;-80
2021/03/17 04:13:51;;;;;;;4.85;2.63;;;5.40;99.90;;;;;;5073686;28;20044;-82
2021/03/17 04:16:20;;;;;;;4.93;2.60;;;5.60;99.90;;;;;;5073012;28;20109;-82
2021/03/17 04:18:48;;;;;;;5.32;2.60;;;5.40;99.90;;;;;;5073103;28;20076;-81
2021/03/17 04:21:19;;;;;;;4.75;2.75;;;5.60;99.90;;;;;;5072834;28;20147;-80
2021/03/17 04:23:48;;;;;;;4.82;2.65;;;5.50;99.90;;;;;;5073114;28;20134;-82
2021/03/17 04:26:17;;;;;;;4.63;2.58;;;5.60;99.90;;;;;;5072708;28;20052;-81
2021/03/17 04:28:48;;;;;;;4.75;2.65;;;5.60;99.90;;;;;;5072363;28;20052;-80
2021/03/17 04:31:16;;;;;;;4.45;2.75;;;5.50;99.90;;;;;;5072835;28;20131;-80
2021/03/17 04:33:44;;;;;;;5.20;2.92;;;5.50;99.90;;;;;;5072801;28;20135;-80
2021/03/17 04:36:12;;;;;;;4.88;2.67;;;5.60;99.90;;;;;;5072610;28;20186;-81
2021/03/17 04:38:40;;;;;;;5.45;2.97;;;5.50;99.90;;;;;;5072717;28;20052;-82
2021/03/17 04:41:08;;;;;;;5.50;2.97;;;5.60;99.90;;;;;;5071441;28;20130;-83
2021/03/17 04:43:38;;;;;;;4.70;2.70;;;5.60;99.90;;;;;;5072849;28;20473;-87
2021/03/17 04:46:10;;;;;;;5.40;2.85;;;5.60;99.90;;;;;;5074106;28;20106;-88
2021/03/17 04:48:46;;;;;;;4.60;2.55;;;5.60;99.90;;;;;;5086309;28;20068;-92
2021/03/17 04:51:33;;;;;;;4.40;2.88;;;5.60;99.90;;;;;;5094240;28;20051;-92
2021/03/17 04:54:03;;;;;;;4.93;2.80;;;5.60;99.90;;;;;;5088800;28;20049;-90
2021/03/17 04:56:32;;;;;;;4.78;2.90;;;5.60;99.90;;;;;;5091081;28;20048;-93
2021/03/17 04:59:02;;;;;;;5.20;3.17;;;5.60;99.90;;;;;;5089098;28;20072;-90
2021/03/17 05:01:33;;;;;;;6.00;3.30;;;5.50;99.90;;;;;;5191214;22;20028;-74
2021/03/17 05:04:00;;;;;;;5.88;3.35;;;5.50;99.90;;;;;;5093594;28;20109;-74
2021/03/17 05:06:30;;;;;;;4.72;2.72;;;5.50;99.90;;;;;;5093785;28;20131;-74
2021/03/17 05:08:59;;;;;;;5.18;3.10;;;5.50;99.90;;;;;;5094250;28;20043;-75
2021/03/17 05:11:26;;;;;;;4.75;2.72;;;5.50;99.90;;;;;;5093990;28;20055;-74
2021/03/17 05:13:53;;;;;;;4.90;2.72;;;5.50;99.90;;;;;;5093996;28;20126;-73
2021/03/17 05:16:21;;;;;;;5.32;2.97;;;5.50;99.90;;;;;;5093811;28;20134;-74
2021/03/17 05:18:49;;;;;;;5.30;3.00;;;5.50;99.90;;;;;;5094146;28;20135;-74
2021/03/17 05:21:18;;;;;;;5.72;3.30;;;5.50;99.90;;;;;;5093881;28;20131;-74
2021/03/17 05:23:44;;;;;;;5.40;3.45;;;5.60;99.90;;;;;;5094103;28;20128;-74
2021/03/17 05:26:11;;;;;;;5.80;3.53;;;5.50;99.90;;;;;;5093280;28;20090;-74
2021/03/17 05:28:40;;;;;;;6.95;4.47;;;5.40;99.90;;;;;;5073527;28;20123;-74
2021/03/17 05:31:08;;;;;;;6.40;3.97;;;5.40;99.90;;;;;;5073315;28;20620;-74
2021/03/17 05:33:36;;;;;;;6.20;3.63;;;5.50;99.90;;;;;;5086488;28;20044;-74
2021/03/17 05:36:04;;;;;;;5.85;3.50;;;5.50;99.90;;;;;;5093702;28;20126;-75
2021/03/17 05:38:31;;;;;;;6.47;3.65;;;5.40;99.90;;;;;;5092577;28;20119;-74
2021/03/17 05:40:57;;;;;;;6.65;3.90;;;5.40;99.90;;;;;;5093424;28;20134;-75
2021/03/17 05:43:24;;;;;;;5.55;3.55;;;5.40;99.90;;;;;;5093663;28;20119;-74
2021/03/17 05:45:52;;;;;;;6.32;4.00;;;5.40;99.90;;;;;;5093514;28;20114;-74
2021/03/17 05:48:20;;;;;;;7.70;4.57;;;5.40;99.90;;;;;;5075415;28;20133;-74
2021/03/17 05:50:48;;;;;;;7.20;4.35;;;5.50;99.90;;;;;;5092933;28;20556;-74
2021/03/17 05:53:16;;;;;;;7.63;4.65;;;5.50;99.90;;;;;;5093011;28;20558;-74
2021/03/17 05:55:43;;;;;;;7.88;4.38;;;5.50;99.90;;;;;;5093249;28;20139;-75
2021/03/17 05:58:12;;;;;;;9.07;5.10;;;5.50;99.90;;;;;;5093185;28;20138;-74
2021/03/17 06:00:39;;;;;;;8.15;4.97;;;5.60;99.90;;;;;;5093081;28;20051;-76
2021/03/17 06:03:06;;;;;;;6.50;4.15;;;5.60;99.90;;;;;;5074899;28;20056;-76
2021/03/17 06:05:34;;;;;;;7.85;5.00;;;5.60;99.90;;;;;;5093175;28;20131;-74
2021/03/17 06:08:05;;;;;;;9.85;6.32;;;5.60;99.90;;;;;;5093082;28;20048;-74
2021/03/17 06:10:34;;;;;;;10.13;6.57;;;5.60;99.90;;;;;;5092952;28;20138;-74
2021/03/17 06:13:08;;;;;;;11.57;6.88;;;5.50;99.90;;;;;;5093058;28;20127;-74
2021/03/17 06:15:35;;;;;;;11.27;7.40;;;5.60;99.90;;;;;;5075265;28;20127;-74
2021/03/17 06:18:16;;;;;;;10.40;7.47;;;5.60;99.90;;;;;;5093017;28;20044;-75
2021/03/17 06:20:44;;;;;;;10.02;6.85;;;5.50;99.90;;;;;;5075007;28;20477;-74
2021/03/17 06:23:11;;;;;;;9.35;6.60;;;5.50;99.90;;;;;;5092861;28;20135;-74
2021/03/17 06:25:39;;;;;;;9.25;6.35;;;5.50;99.90;;;;;;5093112;28;20072;-73
2021/03/17 06:28:08;;;;;;;10.93;8.00;;;5.50;99.90;;;;;;5074802;28;20127;-74
2021/03/17 06:30:35;;;;;;;11.95;7.38;;;5.50;99.90;;;;;;5092691;28;20585;-74
2021/03/17 06:33:01;;;;;;;11.13;7.50;;;5.50;99.90;;;;;;5092823;28;20123;-75
2021/03/17 06:35:28;;;;;;;9.35;6.78;;;5.50;99.90;;;;;;5092749;28;20127;-74
2021/03/17 06:37:55;;;;;;;9.90;6.95;;;5.40;99.90;;;;;;5092831;28;20294;-75
2021/03/17 06:40:29;;;;;;;11.98;7.93;;;5.50;99.90;;;;;;5074932;28;20142;-74
2021/03/17 06:43:05;;;;;;;12.40;8.07;;;5.50;99.90;;;;;;5092815;28;20146;-75
2021/03/17 06:45:37;;;;;;;10.80;6.97;;;5.50;99.90;;;;;;5092610;28;20585;-75
2021/03/17 06:48:21;;;;;;;11.27;7.85;;;5.50;99.90;;;;;;5075012;28;20044;-74
2021/03/17 06:51:04;;;;;;;;;;;5.50;99.90;;;;;;5093095;28;20458;-74
2021/03/17 06:53:43;;;;;;;13.07;7.68;;;5.60;99.90;;;;;;5092746;28;20018;-74
2021/03/17 06:56:19;;;;;;;11.88;8.20;;;5.60;99.90;;;;;;5092530;28;20130;-74
2021/03/17 06:58:48;;;;;;;13.18;8.18;;;5.60;99.90;;;;;;5092508;28;20083;-73
2021/03/17 07:01:31;;;;;;;11.85;7.50;;;5.60;99.90;;;;;;5092745;28;20472;-76
2021/03/17 07:04:00;;;;;;;10.32;7.40;;;5.60;99.90;;;;;;5094330;28;20044;-76
2021/03/17 07:06:27;;;;;;;9.45;6.10;;;5.50;99.90;;;;;;5096334;28;20138;-76
2021/03/17 07:08:55;;;;;;;11.90;7.45;;;5.40;99.90;;;;;;5096036;28;20127;-76
2021/03/17 07:11:25;;;;;;;10.13;6.45;;;5.40;99.90;;;;;;5078210;28;20044;-75
2021/03/17 07:13:58;;;;;;;12.30;7.43;;;5.30;99.90;;;;;;5096796;28;20135;-76
2021/03/17 07:16:37;;;;;;;9.23;5.88;;;5.30;99.90;;;;;;5096311;28;20135;-75
2021/03/17 07:19:05;;;;;;;9.30;5.95;;;5.30;99.90;;;;;;5096068;28;20044;-76
2021/03/17 07:21:37;;;;;;;8.43;5.45;;;5.30;99.90;;;;;;5096341;28;20131;-76
2021/03/17 07:24:07;;;;;;;8.43;5.35;;;5.30;99.90;;;;;;5096293;28;20123;-76
2021/03/17 07:26:35;;;;;;;8.65;5.47;;;5.30;99.90;;;;;;5095897;28;20477;-76
2021/03/17 07:29:13;;;;;;;9.57;5.20;;;5.30;99.90;;;;;;5095999;28;20040;-76
2021/03/17 07:31:44;;;;;;;9.85;5.80;;;5.30;99.90;;;;;;5095938;28;20135;-74
2021/03/17 07:34:14;;;;;;;9.32;5.47;;;5.40;99.90;;;;;;5096027;28;20135;-75
2021/03/17 07:36:45;;;;;;;8.68;5.45;;;5.40;99.90;;;;;;5095848;28;20383;-75
2021/03/17 07:39:17;;;;;;;9.88;6.10;;;5.50;99.90;;;;;;5078214;28;20058;-74
2021/03/17 07:41:44;;;;;;;9.63;5.78;;;5.60;99.90;;;;;;5096105;28;20117;-75
2021/03/17 07:44:13;;;;;;;9.60;6.22;;;5.70;99.90;;;;;;5095764;28;20446;-74
2021/03/17 07:46:44;;;;;;;19.63;7.68;;;5.70;99.90;;;;;;5095615;28;20498;-75
2021/03/17 07:49:11;;;;;;;12.25;6.15;;;5.70;99.90;;;;;;5095574;28;20123;-74
2021/03/17 07:51:51;;;;;;;10.82;6.65;;;5.70;99.90;;;;;;5095761;28;20158;-75
2021/03/17 07:54:26;;;;;;;9.55;6.63;;;5.70;99.90;;;;;;5095585;28;20085;-75
2021/03/17 07:56:54;;;;;;;11.45;7.55;;;5.70;99.90;;;;;;5095357;28;20477;-74
2021/03/17 07:59:22;;;;;;;10.35;6.88;;;5.60;99.90;;;;;;5095521;28;20150;-74
2021/03/17 08:01:51;;;;;;;11.95;7.65;;;5.70;99.90;;;;;;5060680;28;20083;-74
2021/03/17 08:04:18;;;;;;;14.75;7.50;;;5.70;99.90;;;;;;5095458;28;20044;-74
2021/03/17 08:06:45;;;;;;;11.43;6.90;;;5.70;99.90;;;;;;5095305;28;20135;-74
2021/03/17 08:09:12;;;;;;;12.57;8.38;;;5.70;99.90;;;;;;5095029;28;20440;-74
2021/03/17 08:11:39;;;;;;;13.38;8.35;;;5.70;99.90;;;;;;5095394;28;20075;-75
2021/03/17 08:14:07;;;;;;;14.13;8.23;;;5.80;99.90;;;;;;5094563;28;20044;-75
2021/03/17 08:16:36;;;;;;;12.80;8.02;;;5.90;99.90;;;;;;5095161;28;20067;-74
2021/03/17 08:19:23;;;;;;;14.07;8.88;;;5.90;99.90;;;;;;5094987;28;20261;-74
2021/03/17 08:21:54;;;;;;;15.45;8.70;;;6.00;99.90;;;;;;5095179;28;20048;-75
2021/03/17 08:24:44;;;;;;;13.32;8.82;;;6.10;99.90;;;;;;5094849;28;20043;-74
2021/03/17 08:27:24;;;;;;;13.00;9.07;;;6.20;99.90;;;;;;5061185;28;20123;-74
2021/03/17 08:30:11;;;;;;;15.30;8.77;;;6.30;99.90;;;;;;5094835;28;20131;-74
2021/03/17 08:33:06;;;;;;;13.88;8.52;;;6.30;99.90;;;;;;5094222;28;20059;-74
2021/03/17 08:36:05;;;;;;;12.73;8.02;;;6.40;99.90;;;;;;5041789;28;20047;-76
2021/03/17 08:38:51;;;;;;;12.40;8.18;;;6.50;99.60;;;;;;5094756;28;20055;-76
2021/03/17 08:41:41;;;;;;;13.15;8.35;;;6.50;99.70;;;;;;5093930;28;20076;-76
2021/03/17 08:44:12;;;;;;;12.65;8.18;;;6.50;99.70;;;;;;5094424;28;20040;-75
2021/03/17 08:46:39;;;;;;;13.85;8.65;;;6.60;99.80;;;;;;5094277;28;20127;-76
2021/03/17 08:49:07;;;;;;;12.05;7.82;;;6.80;99.60;;;;;;5094307;28;20075;-76
2021/03/17 08:52:12;;;;;;;11.60;7.80;;;6.80;99.00;;;;;;5094370;28;20050;-76
2021/03/17 08:54:59;;;;;;;14.57;8.77;;;6.90;98.80;;;;;;5094799;28;20044;-76
2021/03/17 08:58:01;;;;;;;12.07;7.28;;;6.90;98.00;;;;;;5094695;28;20506;-75
2021/03/17 09:00:58;;;;;;;13.30;7.72;;;6.90;98.50;;;;;;5094447;28;20048;-76
2021/03/17 09:03:44;;;;;;;12.68;7.75;;;7.00;97.70;;;;;;5094039;28;20055;-76
2021/03/17 09:06:25;;;;;;;14.18;7.97;;;7.10;97.40;;;;;;5094368;28;20044;-75
2021/03/17 09:08:59;;;;;;;12.80;7.90;;;7.10;97.60;;;;;;5094315;28;20138;-76
2021/03/17 09:11:50;;;;;;;13.70;8.13;;;7.20;98.00;;;;;;5093850;28;20083;-76
2021/03/17 09:14:26;;;;;;;11.73;6.68;;;7.30;97.80;;;;;;5082853;28;20397;-76
2021/03/17 09:17:26;;;;;;;10.10;6.57;;;7.40;96.60;;;;;;5076502;28;20493;-76
2021/03/17 09:20:29;;;;;;;11.43;7.03;;;7.50;96.40;;;;;;5093884;28;20127;-76
2021/03/17 09:23:11;;;;;;;8.90;5.72;;;7.60;95.90;;;;;;5093990;28;20102;-76
2021/03/17 09:25:45;;;;;;;8.80;4.93;;;7.60;94.00;;;;;;5088644;28;20558;-76
2021/03/17 09:28:22;;;;;;;7.50;4.40;;;7.60;94.60;;;;;;5093399;28;20069;-75
2021/03/17 09:30:53;;;;;;;9.02;5.45;;;7.60;94.50;;;;;;5093475;28;20118;-75
2021/03/17 09:33:24;;;;;;;7.95;4.80;;;7.60;92.20;;;;;;5093773;28;20048;-76
2021/03/17 09:35:55;;;;;;;9.20;5.70;;;7.60;92.10;;;;;;5093699;28;20093;-76
2021/03/17 09:38:25;;;;;;;8.60;5.10;;;7.50;92.20;;;;;;5093824;28;20043;-76
2021/03/17 09:40:57;;;;;;;7.97;5.60;;;7.50;92.40;;;;;;5093816;28;20056;-75
2021/03/17 09:43:42;;;;;;;7.55;4.78;;;7.50;91.60;;;;;;5093478;28;20127;-76
2021/03/17 09:46:31;;;;;;;7.75;4.78;;;7.40;92.10;;;;;;5093427;28;20137;-76
2021/03/17 09:49:03;;;;;;;6.63;4.30;;;7.50;91.60;;;;;;5093464;28;20051;-76
2021/03/17 09:51:33;;;;;;;6.22;4.05;;;7.40;90.20;;;;;;5093573;28;20059;-76
2021/03/17 09:54:03;;;;;;;6.32;3.53;;;7.40;90.70;;;;;;5093725;28;20048;-76
2021/03/17 09:56:41;;;;;;;6.57;3.72;;;7.40;91.20;;;;;;5093223;28;20060;-76
2021/03/17 09:59:21;;;;;;;6.85;4.13;;;7.50;91.40;;;;;;5093210;28;20144;-76
2021/03/17 10:01:50;;;;;;;8.05;4.30;;;7.60;91.80;;;;;;5093389;28;20106;-76
2021/03/17 10:04:22;;;;;;;6.50;4.13;;;7.80;91.00;;;;;;5093106;28;20608;-76
2021/03/17 10:06:49;;;;;;;7.22;3.80;;;7.80;89.30;;;;;;5093153;28;20501;-75
2021/03/17 10:09:17;;;;;;;5.70;2.88;;;7.80;88.60;;;;;;5093139;28;20139;-75
2021/03/17 10:11:44;;;;;;;6.72;3.53;;;7.70;87.80;;;;;;5092948;28;20087;-75
2021/03/17 10:14:13;;;;;;;6.47;3.60;;;7.80;83.10;;;;;;5092888;28;20075;-75
2021/03/17 10:16:40;;;;;;;7.22;3.78;;;7.80;81.50;;;;;;5092963;28;20051;-75
2021/03/17 10:19:07;;;;;;;6.00;3.50;;;7.80;81.80;;;;;;5092779;28;20474;-76
2021/03/17 10:21:34;;;;;;;5.80;3.88;;;7.70;83.80;;;;;;5074965;28;20097;-76
2021/03/17 10:24:01;;;;;;;6.18;3.55;;;7.70;85.60;;;;;;5092785;28;20190;-76
2021/03/17 10:26:29;;;;;;;7.00;4.03;;;7.70;85.80;;;;;;5092729;28;20052;-76
2021/03/17 10:28:56;;;;;;;6.97;3.45;;;7.80;87.70;;;;;;5092926;28;20056;-76
2021/03/17 10:31:23;;;;;;;5.88;3.45;;;7.90;88.10;;;;;;5092923;28;20143;-75
2021/03/17 10:33:50;;;;;;;7.63;4.00;;;7.80;87.00;;;;;;5092584;28;20178;-76
2021/03/17 10:36:16;;;;;;;4.82;2.72;;;7.90;86.00;;;;;;5092711;28;20091;-76
2021/03/17 10:38:51;;;;;;;4.63;2.35;;;8.00;80.00;;;;;;5077647;28;20132;-76
2021/03/17 10:41:40;;;;;;;4.57;2.30;;;7.90;82.00;;;;;;5096927;28;20494;-76
2021/03/17 10:44:16;;;;;;;5.80;3.20;;;7.90;83.40;;;;;;5096937;28;20130;-76
2021/03/17 10:47:07;;;;;;;5.03;2.63;;;8.00;83.40;;;;;;5096530;28;20134;-76
2021/03/17 10:49:37;;;;;;;5.85;2.35;;;8.20;82.20;;;;;;5096657;28;20126;-75
2021/03/17 10:52:04;;;;;;;6.70;2.65;;;8.30;81.50;;;;;;5078906;28;20059;-75
2021/03/17 10:54:33;;;;;;;5.32;2.75;;;8.50;77.30;;;;;;5096743;28;20056;-75
2021/03/17 10:57:02;;;;;;;4.22;2.47;;;8.60;75.50;;;;;;5096670;28;20071;-76
2021/03/17 10:59:32;;;;;;;5.78;2.60;;;8.60;75.20;;;;;;5096682;28;20124;-75
2021/03/17 11:02:24;;;;;;;4.15;2.47;;;8.60;73.30;;;;;;5078211;28;20516;-76
2021/03/17 11:05:20;;;;;;;5.15;2.25;;;8.60;73.90;;;;;;5096375;28;20132;-76
2021/03/17 11:08:12;;;;;;;5.15;2.33;;;8.60;72.50;;;;;;5096622;28;20056;-76
2021/03/17 11:11:03;;;;;;;4.93;2.30;;;8.50;72.60;;;;;;5096323;28;20052;-75
2021/03/17 11:13:45;;;;;;;3.80;2.00;;;8.40;73.40;;;;;;5092129;28;20048;-76
2021/03/17 11:16:26;;;;;;;5.22;2.13;;;8.30;74.50;;;;;;5096144;28;20448;-76
2021/03/17 11:18:56;;;;;;;5.03;2.45;;;8.30;74.10;;;;;;5096089;28;20477;-76
2021/03/17 11:21:27;;;;;;;4.30;2.33;;;8.30;74.10;;;;;;5096315;28;20048;-75
2021/03/17 11:23:55;;;;;;;5.43;2.80;;;8.20;77.20;;;;;;5096293;28;20044;-76
2021/03/17 11:26:27;;;;;;;4.25;2.40;;;8.20;79.50;;;;;;5096004;28;20470;-76
2021/03/17 11:28:58;;;;;;;4.93;2.38;;;8.30;81.40;;;;;;5096073;28;20472;-76
2021/03/17 11:31:32;;;;;;;5.90;2.92;;;8.30;82.20;;;;;;5095921;28;20048;-75
2021/03/17 11:33:59;;;;;;;4.75;2.70;;;8.30;83.00;;;;;;5096014;28;20135;-76
2021/03/17 11:36:26;;;;;;;5.85;2.80;;;8.30;84.20;;;;;;5095845;28;20242;-76
2021/03/17 11:38:55;;;;;;;6.05;3.40;;;8.30;85.70;;;;;;5095906;28;20469;-75
2021/03/17 11:41:22;;;;;;;7.55;3.65;;;8.20;86.20;;;;;;5095691;28;20040;-76
2021/03/17 11:43:49;;;;;;;8.77;3.20;;;8.10;86.70;;;;;;5094777;28;20062;-76
2021/03/17 11:46:18;;;;;;;6.40;3.33;;;7.90;88.00;;;;;;5095726;28;20286;-75
2021/03/17 11:48:46;;;;;;;6.30;3.45;;;7.80;89.60;;;;;;5095009;28;20044;-76
2021/03/17 11:51:13;;;;;;;6.28;3.10;;;7.80;90.20;;;;;;5095077;28;20044;-76
2021/03/17 11:53:40;;;;;;;7.38;3.60;;;7.90;90.60;;;;;;5095639;28;20131;-76
2021/03/17 11:56:07;;;;;;;6.05;3.08;;;8.00;90.40;;;;;;5095519;28;20131;-75
2021/03/17 11:58:35;;;;;;;6.00;3.50;;;8.00;90.60;;;;;;5077176;28;20047;-76
2021/03/17 12:01:03;;;;;;;5.70;3.45;;;8.00;90.70;;;;;;5095427;28;20090;-75
2021/03/17 12:03:31;;;;;;;6.88;3.40;;;7.90;91.00;;;;;;5095200;28;20044;-76
2021/03/17 12:05:58;;;;;;;6.63;3.35;;;7.80;91.30;;;;;;5095477;28;20393;-76
2021/03/17 12:08:25;;;;;;;6.35;3.13;;;7.90;91.50;;;;;;5095456;28;20128;-76
2021/03/17 12:10:52;;;;;;;4.30;2.40;;;7.80;91.50;;;;;;5095156;28;20084;-76
2021/03/17 12:13:20;;;;;;;3.92;2.35;;;7.80;91.60;;;;;;5095163;28;20055;-76
2021/03/17 12:15:47;;;;;;;5.03;2.90;;;7.80;91.50;;;;;;5095061;28;20135;-76
2021/03/17 12:18:15;;;;;;;5.15;3.03;;;7.80;91.30;;;;;;5095067;28;20314;-75
2021/03/17 12:20:43;;;;;;;4.32;2.65;;;7.80;91.30;;;;;;5094139;28;20178;-75
2021/03/17 12:23:11;;;;;;;5.50;2.92;;;7.60;91.20;;;;;;5091697;28;20383;-76
2021/03/17 12:25:38;;;;;;;4.72;2.40;;;7.60;91.50;;;;;;5092322;28;20140;-76
2021/03/17 12:28:06;;;;;;;4.50;2.53;;;7.60;91.80;;;;;;5092154;28;20151;-76
2021/03/17 12:30:33;;;;;;;6.35;2.90;;;7.50;92.10;;;;;;5092354;28;20048;-76
2021/03/17 12:33:00;;;;;;;4.72;2.40;;;7.50;92.20;;;;;;5092217;28;20044;-76
2021/03/17 12:35:28;;;;;;;4.95;2.75;;;7.50;92.40;;;;;;5091236;28;20084;-75
2021/03/17 12:37:56;;;;;;;7.13;2.80;;;7.50;92.60;;;;;;5092021;28;20044;-76
2021/03/17 12:40:26;;;;;;;4.78;2.72;;;7.50;92.80;;;;;;5091739;28;20050;-76
2021/03/17 12:42:54;;;;;;;6.40;2.70;;;7.50;92.90;;;;;;5092032;28;20193;-76
2021/03/17 12:45:28;;;;;;;7.22;3.33;;;7.50;92.90;;;;;;5092080;28;20051;-76
2021/03/17 12:47:55;;;;;;;5.75;2.88;;;7.50;92.90;;;;;;5092010;28;20086;-75
2021/03/17 12:50:23;;;;;;;5.45;2.97;;;7.40;93.00;;;;;;5091476;28;20140;-76
2021/03/17 12:52:50;;;;;;;4.75;2.63;;;7.40;93.00;;;;;;5091946;28;20127;-76
2021/03/17 12:55:18;;;;;;;7.03;3.58;;;7.40;92.70;;;;;;5091556;28;20072;-76
2021/03/17 12:57:45;;;;;;;8.02;4.30;;;7.40;91.70;;;;;;5091306;28;20134;-75
2021/03/17 13:00:15;;;;;;;6.13;3.30;;;7.40;91.80;;;;;;5091164;28;20135;-76
2021/03/17 13:02:42;;;;;;;6.38;3.83;;;7.30;91.60;;;;;;5091434;28;20139;-77
2021/03/17 13:05:11;;;;;;;6.43;3.70;;;7.30;92.90;;;;;;5091735;28;20135;-76
2021/03/17 13:07:39;;;;;;;6.93;3.88;;;7.20;94.00;;;;;;5073484;28;20076;-76
2021/03/17 13:10:09;;;;;;;6.50;3.60;;;7.20;94.00;;;;;;5091216;28;20079;-76
2021/03/17 13:12:37;;;;;;;6.03;3.17;;;7.10;94.80;;;;;;5091211;28;20052;-75
2021/03/17 13:15:06;;;;;;;6.03;3.20;;;6.90;95.00;;;;;;5072880;28;20135;-75
2021/03/17 13:17:33;;;;;;;6.82;3.50;;;6.80;95.10;;;;;;5088001;28;20046;-74